sensor_id;sensor_type;location;lat;lon;timestamp;temperature;humidity
15997;DHT22;8103;51.340;12.326;2023-09-30T00:00:06;18.20;99.90
15997;DHT22;8103;51.340;12.326;2023-09-30T00:02:35;18.30;99.90
15997;DHT22;8103;51.340;12.326;2023-09-30T00:05:02;18.20;99.90
15997;DHT22;8103;51.340;12.326;2023-09-30T00:07:30;18.20;99.90
15997;DHT22;8103;51.340;12.326;2023-09-30T00:09:57;18.10;99.90
15997;DHT22;8103;51.340;12.326;2023-09-30T00:12:23;18.10;99.90
15997;DHT22;8103;51.340;12.326;2023-09-30T00:14:50;18.10;99.90
15997;DHT22;8103;51.340;12.326;2023-09-30T00:17:17;18.00;99.90
15997;DHT22;8103;51.340;12.326;2023-09-30T00:19:43;18.00;99.90
15997;DHT22;8103;51.340;12.326;2023-09-30T00:22:11;18.00;99.90
15997;DHT22;8103;51.340;12.326;2023-09-30T00:24:38;18.00;99.90
15997;DHT22;8103;51.340;12.326;2023-09-30T00:27:05;17.90;99.90
15997;DHT22;8103;51.340;12.326;2023-09-30T00:29:32;17.90;99.90
15997;DHT22;8103;51.340;12.326;2023-09-30T00:31:58;17.90;99.90
15997;DHT22;8103;51.340;12.326;2023-09-30T00:34:25;17.80;99.90
15997;DHT22;8103;51.340;12.326;2023-09-30T00:36:52;17.70;99.90
15997;DHT22;8103;51.340;12.326;2023-09-30T00:39:19;17.70;99.90
15997;DHT22;8103;51.340;12.326;2023-09-30T00:41:45;17.80;99.90
15997;DHT22;8103;51.340;12.326;2023-09-30T00:44:12;17.80;99.90
15997;DHT22;8103;51.340;12.326;2023-09-30T00:46:40;17.70;99.90
15997;DHT22;8103;51.340;12.326;2023-09-30T00:49:08;17.70;99.90
15997;DHT22;8103;51.340;12.326;2023-09-30T00:51:37;17.70;99.90
15997;DHT22;8103;51.340;12.326;2023-09-30T00:54:04;17.70;99.90
15997;DHT22;8103;51.340;12.326;2023-09-30T00:56:32;17.60;99.90
15997;DHT22;8103;51.340;12.326;2023-09-30T00:58:59;17.60;99.90
15997;DHT22;8103;51.340;12.326;2023-09-30T01:01:27;17.50;99.90
15997;DHT22;8103;51.340;12.326;2023-09-30T01:03:55;17.50;99.90
15997;DHT22;8103;51.340;12.326;2023-09-30T01:06:22;17.40;99.90
15997;DHT22;8103;51.340;12.326;2023-09-30T01:08:49;17.30;99.90
15997;DHT22;8103;51.340;12.326;2023-09-30T01:11:16;17.20;99.90
15997;DHT22;8103;51.340;12.326;2023-09-30T01:13:42;17.10;99.90
15997;DHT22;8103;51.340;12.326;2023-09-30T01:16:11;17.00;99.90
15997;DHT22;8103;51.340;12.326;2023-09-30T01:18:40;16.90;99.90
15997;DHT22;8103;51.340;12.326;2023-09-30T01:21:09;16.90;99.90
15997;DHT22;8103;51.340;12.326;2023-09-30T01:23:37;16.80;99.90
15997;DHT22;8103;51.340;12.326;2023-09-30T01:26:06;16.90;99.90
15997;DHT22;8103;51.340;12.326;2023-09-30T01:28:33;16.90;99.90
15997;DHT22;8103;51.340;12.326;2023-09-30T01:31:00;16.90;99.90
15997;DHT22;8103;51.340;12.326;2023-09-30T01:33:27;16.80;99.90
15997;DHT22;8103;51.340;12.326;2023-09-30T01:35:54;16.80;99.90
15997;DHT22;8103;51.340;12.326;2023-09-30T01:38:21;16.80;99.90
15997;DHT22;8103;51.340;12.326;2023-09-30T01:40:48;16.70;99.90
15997;DHT22;8103;51.340;12.326;2023-09-30T01:43:15;16.70;99.90
15997;DHT22;8103;51.340;12.326;2023-09-30T01:45:42;16.60;99.90
15997;DHT22;8103;51.340;12.326;2023-09-30T01:48:09;16.50;99.90
15997;DHT22;8103;51.340;12.326;2023-09-30T01:50:38;16.50;99.90
15997;DHT22;8103;51.340;12.326;2023-09-30T01:53:06;16.50;99.90
15997;DHT22;8103;51.340;12.326;2023-09-30T01:55:33;16.40;99.90
15997;DHT22;8103;51.340;12.326;2023-09-30T01:58:00;16.30;99.90
15997;DHT22;8103;51.340;12.326;2023-09-30T02:00:27;16.30;99.90
15997;DHT22;8103;51.340;12.326;2023-09-30T02:02:57;16.30;99.90
15997;DHT22;8103;51.340;12.326;2023-09-30T02:05:24;16.20;99.90
15997;DHT22;8103;51.340;12.326;2023-09-30T02:07:51;16.20;99.90
15997;DHT22;8103;51.340;12.326;2023-09-30T02:10:19;16.20;99.90
15997;DHT22;8103;51.340;12.326;2023-09-30T02:12:47;16.20;99.90
15997;DHT22;8103;51.340;12.326;2023-09-30T02:15:14;16.20;99.90
15997;DHT22;8103;51.340;12.326;2023-09-30T02:17:41;16.10;99.90
15997;DHT22;8103;51.340;12.326;2023-09-30T02:20:12;16.10;99.90
15997;DHT22;8103;51.340;12.326;2023-09-30T02:22:42;16.00;99.90
15997;DHT22;8103;51.340;12.326;2023-09-30T02:25:11;15.90;99.90
15997;DHT22;8103;51.340;12.326;2023-09-30T02:27:42;15.90;99.90
15997;DHT22;8103;51.340;12.326;2023-09-30T02:30:10;15.90;99.90
15997;DHT22;8103;51.340;12.326;2023-09-30T02:32:39;15.90;99.90
15997;DHT22;8103;51.340;12.326;2023-09-30T02:35:07;15.90;99.90
15997;DHT22;8103;51.340;12.326;2023-09-30T02:37:34;15.90;99.90
15997;DHT22;8103;51.340;12.326;2023-09-30T02:40:05;16.00;99.90
15997;DHT22;8103;51.340;12.326;2023-09-30T02:42:39;16.00;99.90
15997;DHT22;8103;51.340;12.326;2023-09-30T02:45:07;15.90;99.90
15997;DHT22;8103;51.340;12.326;2023-09-30T02:47:38;15.90;99.90
15997;DHT22;8103;51.340;12.326;2023-09-30T02:50:06;15.90;99.90
15997;DHT22;8103;51.340;12.326;2023-09-30T02:52:34;15.90;99.90
15997;DHT22;8103;51.340;12.326;2023-09-30T02:55:01;15.90;99.90
15997;DHT22;8103;51.340;12.326;2023-09-30T02:57:29;15.90;99.90
15997;DHT22;8103;51.340;12.326;2023-09-30T02:59:57;15.90;99.90
15997;DHT22;8103;51.340;12.326;2023-09-30T03:02:26;15.80;99.90
15997;DHT22;8103;51.340;12.326;2023-09-30T03:04:53;15.80;99.90
15997;DHT22;8103;51.340;12.326;2023-09-30T03:07:20;15.70;99.90
15997;DHT22;8103;51.340;12.326;2023-09-30T03:09:47;15.70;99.90
15997;DHT22;8103;51.340;12.326;2023-09-30T03:12:14;15.60;99.90
15997;DHT22;8103;51.340;12.326;2023-09-30T03:14:40;15.50;99.90
15997;DHT22;8103;51.340;12.326;2023-09-30T03:17:07;15.40;99.90
15997;DHT22;8103;51.340;12.326;2023-09-30T03:19:38;15.30;99.90
15997;DHT22;8103;51.340;12.326;2023-09-30T03:22:05;15.30;99.90
15997;DHT22;8103;51.340;12.326;2023-09-30T03:24:40;15.20;99.90
15997;DHT22;8103;51.340;12.326;2023-09-30T03:27:08;15.10;99.90
15997;DHT22;8103;51.340;12.326;2023-09-30T03:29:38;15.00;99.90
15997;DHT22;8103;51.340;12.326;2023-09-30T03:32:05;15.00;99.90
15997;DHT22;8103;51.340;12.326;2023-09-30T03:34:33;14.90;99.90
15997;DHT22;8103;51.340;12.326;2023-09-30T03:37:03;14.90;99.90
15997;DHT22;8103;51.340;12.326;2023-09-30T03:39:33;14.80;99.90
15997;DHT22;8103;51.340;12.326;2023-09-30T03:41:59;14.80;99.90
15997;DHT22;8103;51.340;12.326;2023-09-30T03:44:27;14.70;99.90
15997;DHT22;8103;51.340;12.326;2023-09-30T03:46:54;14.70;99.90
15997;DHT22;8103;51.340;12.326;2023-09-30T03:49:21;14.70;99.90
15997;DHT22;8103;51.340;12.326;2023-09-30T03:51:48;14.70;99.90
15997;DHT22;8103;51.340;12.326;2023-09-30T03:54:17;14.70;99.90
15997;DHT22;8103;51.340;12.326;2023-09-30T03:56:47;14.70;99.90
15997;DHT22;8103;51.340;12.326;2023-09-30T03:59:14;14.60;99.90
15997;DHT22;8103;51.340;12.326;2023-09-30T04:01:41;14.60;99.90
15997;DHT22;8103;51.340;12.326;2023-09-30T04:04:09;14.60;99.90
15997;DHT22;8103;51.340;12.326;2023-09-30T04:06:37;14.50;99.90
15997;DHT22;8103;51.340;12.326;2023-09-30T04:09:05;14.60;99.90
15997;DHT22;8103;51.340;12.326;2023-09-30T04:11:37;14.60;99.90
15997;DHT22;8103;51.340;12.326;2023-09-30T04:14:06;14.60;99.90
15997;DHT22;8103;51.340;12.326;2023-09-30T04:16:33;14.50;99.90
15997;DHT22;8103;51.340;12.326;2023-09-30T04:19:00;14.40;99.90
15997;DHT22;8103;51.340;12.326;2023-09-30T04:21:27;14.40;99.90
15997;DHT22;8103;51.340;12.326;2023-09-30T04:23:56;14.40;99.90
15997;DHT22;8103;51.340;12.326;2023-09-30T04:26:24;14.30;99.90
15997;DHT22;8103;51.340;12.326;2023-09-30T04:28:52;14.20;99.90
15997;DHT22;8103;51.340;12.326;2023-09-30T04:31:20;14.20;99.90
15997;DHT22;8103;51.340;12.326;2023-09-30T04:33:50;14.10;99.90
15997;DHT22;8103;51.340;12.326;2023-09-30T04:36:20;14.10;99.90
15997;DHT22;8103;51.340;12.326;2023-09-30T04:38:48;14.10;99.90
15997;DHT22;8103;51.340;12.326;2023-09-30T04:41:15;14.00;99.90
15997;DHT22;8103;51.340;12.326;2023-09-30T04:43:42;14.10;99.90
15997;DHT22;8103;51.340;12.326;2023-09-30T04:46:10;14.10;99.90
15997;DHT22;8103;51.340;12.326;2023-09-30T04:48:40;14.10;99.90
15997;DHT22;8103;51.340;12.326;2023-09-30T04:51:07;14.10;99.90
15997;DHT22;8103;51.340;12.326;2023-09-30T04:53:35;14.10;99.90
15997;DHT22;8103;51.340;12.326;2023-09-30T04:56:03;14.10;99.90
15997;DHT22;8103;51.340;12.326;2023-09-30T04:58:29;14.00;99.90
15997;DHT22;8103;51.340;12.326;2023-09-30T05:00:57;14.00;99.90
15997;DHT22;8103;51.340;12.326;2023-09-30T05:03:24;14.00;99.90
15997;DHT22;8103;51.340;12.326;2023-09-30T05:05:52;14.00;99.90
15997;DHT22;8103;51.340;12.326;2023-09-30T05:08:23;14.00;99.90
15997;DHT22;8103;51.340;12.326;2023-09-30T05:10:50;14.00;99.90
15997;DHT22;8103;51.340;12.326;2023-09-30T05:13:17;14.00;99.90
15997;DHT22;8103;51.340;12.326;2023-09-30T05:15:44;14.10;99.90
15997;DHT22;8103;51.340;12.326;2023-09-30T05:18:12;14.00;99.90
15997;DHT22;8103;51.340;12.326;2023-09-30T05:20:38;14.00;99.90
15997;DHT22;8103;51.340;12.326;2023-09-30T05:23:06;14.00;99.90
15997;DHT22;8103;51.340;12.326;2023-09-30T05:25:33;14.10;99.90
15997;DHT22;8103;51.340;12.326;2023-09-30T05:28:00;14.10;99.90
15997;DHT22;8103;51.340;12.326;2023-09-30T05:30:27;14.00;99.90
15997;DHT22;8103;51.340;12.326;2023-09-30T05:32:54;14.10;99.90
15997;DHT22;8103;51.340;12.326;2023-09-30T05:35:21;14.10;99.90
15997;DHT22;8103;51.340;12.326;2023-09-30T05:37:49;14.10;99.90
15997;DHT22;8103;51.340;12.326;2023-09-30T05:40:19;14.10;99.90
15997;DHT22;8103;51.340;12.326;2023-09-30T05:42:49;14.10;99.90
15997;DHT22;8103;51.340;12.326;2023-09-30T05:45:16;14.10;99.90
15997;DHT22;8103;51.340;12.326;2023-09-30T05:47:43;14.00;99.90
15997;DHT22;8103;51.340;12.326;2023-09-30T05:50:13;14.00;99.90
15997;DHT22;8103;51.340;12.326;2023-09-30T05:52:43;13.90;99.90
15997;DHT22;8103;51.340;12.326;2023-09-30T05:55:11;13.90;99.90
15997;DHT22;8103;51.340;12.326;2023-09-30T05:57:38;13.90;99.90
15997;DHT22;8103;51.340;12.326;2023-09-30T06:00:06;13.90;99.90
15997;DHT22;8103;51.340;12.326;2023-09-30T06:02:41;13.80;99.90
15997;DHT22;8103;51.340;12.326;2023-09-30T06:05:09;13.80;99.90
15997;DHT22;8103;51.340;12.326;2023-09-30T06:07:37;13.80;99.90
15997;DHT22;8103;51.340;12.326;2023-09-30T06:10:04;13.80;99.90
15997;DHT22;8103;51.340;12.326;2023-09-30T06:12:32;13.80;99.90
15997;DHT22;8103;51.340;12.326;2023-09-30T06:14:58;13.80;99.90
15997;DHT22;8103;51.340;12.326;2023-09-30T06:17:27;13.90;99.90
15997;DHT22;8103;51.340;12.326;2023-09-30T06:19:54;13.90;99.90
15997;DHT22;8103;51.340;12.326;2023-09-30T06:22:21;13.90;99.90
15997;DHT22;8103;51.340;12.326;2023-09-30T06:24:48;14.00;99.90
15997;DHT22;8103;51.340;12.326;2023-09-30T06:27:14;14.10;99.90
15997;DHT22;8103;51.340;12.326;2023-09-30T06:29:42;14.20;99.90
15997;DHT22;8103;51.340;12.326;2023-09-30T06:32:09;14.30;99.90
15997;DHT22;8103;51.340;12.326;2023-09-30T06:34:36;14.50;99.90
15997;DHT22;8103;51.340;12.326;2023-09-30T06:37:02;14.60;99.90
15997;DHT22;8103;51.340;12.326;2023-09-30T06:39:30;14.70;99.90
15997;DHT22;8103;51.340;12.326;2023-09-30T06:41:57;14.80;99.90
15997;DHT22;8103;51.340;12.326;2023-09-30T06:44:23;14.90;99.90
15997;DHT22;8103;51.340;12.326;2023-09-30T06:46:51;15.00;99.90
15997;DHT22;8103;51.340;12.326;2023-09-30T06:49:18;15.10;99.90
15997;DHT22;8103;51.340;12.326;2023-09-30T06:51:45;15.10;99.90
15997;DHT22;8103;51.340;12.326;2023-09-30T06:54:12;15.10;99.90
15997;DHT22;8103;51.340;12.326;2023-09-30T06:56:39;15.10;99.90
15997;DHT22;8103;51.340;12.326;2023-09-30T06:59:05;15.10;99.90
15997;DHT22;8103;51.340;12.326;2023-09-30T07:01:33;15.20;99.90
15997;DHT22;8103;51.340;12.326;2023-09-30T07:03:59;15.20;99.90
15997;DHT22;8103;51.340;12.326;2023-09-30T07:06:26;15.30;99.90
15997;DHT22;8103;51.340;12.326;2023-09-30T07:08:53;15.40;99.90
15997;DHT22;8103;51.340;12.326;2023-09-30T07:11:30;15.40;99.90
15997;DHT22;8103;51.340;12.326;2023-09-30T07:13:59;15.50;99.90
15997;DHT22;8103;51.340;12.326;2023-09-30T07:16:26;15.50;99.90
15997;DHT22;8103;51.340;12.326;2023-09-30T07:18:53;15.50;99.90
15997;DHT22;8103;51.340;12.326;2023-09-30T07:21:19;15.50;99.90
15997;DHT22;8103;51.340;12.326;2023-09-30T07:23:46;15.50;99.90
15997;DHT22;8103;51.340;12.326;2023-09-30T07:26:14;15.60;99.90
15997;DHT22;8103;51.340;12.326;2023-09-30T07:28:41;15.60;99.90
15997;DHT22;8103;51.340;12.326;2023-09-30T07:31:07;15.70;99.90
15997;DHT22;8103;51.340;12.326;2023-09-30T07:33:34;15.70;99.90
15997;DHT22;8103;51.340;12.326;2023-09-30T07:36:01;15.70;99.90
15997;DHT22;8103;51.340;12.326;2023-09-30T07:38:28;15.80;99.90
15997;DHT22;8103;51.340;12.326;2023-09-30T07:40:55;15.90;99.90
15997;DHT22;8103;51.340;12.326;2023-09-30T07:43:21;15.90;99.90
15997;DHT22;8103;51.340;12.326;2023-09-30T07:45:48;15.90;99.90
15997;DHT22;8103;51.340;12.326;2023-09-30T07:48:15;16.10;99.90
15997;DHT22;8103;51.340;12.326;2023-09-30T07:50:42;16.20;99.60
15997;DHT22;8103;51.340;12.326;2023-09-30T07:53:08;16.40;99.20
15997;DHT22;8103;51.340;12.326;2023-09-30T07:55:35;16.60;98.90
15997;DHT22;8103;51.340;12.326;2023-09-30T08:01:51;16.70;97.60
15997;DHT22;8103;51.340;12.326;2023-09-30T08:04:19;16.70;97.60
15997;DHT22;8103;51.340;12.326;2023-09-30T08:06:48;16.70;97.70
15997;DHT22;8103;51.340;12.326;2023-09-30T08:09:15;16.70;97.80
15997;DHT22;8103;51.340;12.326;2023-09-30T08:11:42;16.60;97.90
15997;DHT22;8103;51.340;12.326;2023-09-30T08:14:10;16.60;97.80
15997;DHT22;8103;51.340;12.326;2023-09-30T08:16:37;16.60;97.60
15997;DHT22;8103;51.340;12.326;2023-09-30T08:19:04;16.60;97.60
15997;DHT22;8103;51.340;12.326;2023-09-30T08:21:31;16.50;97.70
15997;DHT22;8103;51.340;12.326;2023-09-30T08:23:59;16.50;97.80
15997;DHT22;8103;51.340;12.326;2023-09-30T08:26:26;16.70;97.70
15997;DHT22;8103;51.340;12.326;2023-09-30T08:28:53;17.00;97.20
15997;DHT22;8103;51.340;12.326;2023-09-30T08:31:19;17.20;96.70
15997;DHT22;8103;51.340;12.326;2023-09-30T08:33:48;17.30;95.70
15997;DHT22;8103;51.340;12.326;2023-09-30T08:36:15;17.40;95.50
15997;DHT22;8103;51.340;12.326;2023-09-30T08:38:41;17.40;95.30
15997;DHT22;8103;51.340;12.326;2023-09-30T08:41:09;17.30;95.20
15997;DHT22;8103;51.340;12.326;2023-09-30T08:43:38;17.20;95.30
15997;DHT22;8103;51.340;12.326;2023-09-30T08:46:05;17.30;95.40
15997;DHT22;8103;51.340;12.326;2023-09-30T08:48:33;17.30;95.30
15997;DHT22;8103;51.340;12.326;2023-09-30T08:51:02;17.40;95.30
15997;DHT22;8103;51.340;12.326;2023-09-30T08:53:30;17.50;94.60
15997;DHT22;8103;51.340;12.326;2023-09-30T08:55:58;17.60;94.50
15997;DHT22;8103;51.340;12.326;2023-09-30T08:58:28;17.70;94.40
15997;DHT22;8103;51.340;12.326;2023-09-30T09:00:55;17.80;93.90
15997;DHT22;8103;51.340;12.326;2023-09-30T09:03:23;18.10;94.10
15997;DHT22;8103;51.340;12.326;2023-09-30T09:05:54;18.90;93.20
15997;DHT22;8103;51.340;12.326;2023-09-30T09:08:25;20.10;90.40
15997;DHT22;8103;51.340;12.326;2023-09-30T09:10:57;21.50;85.50
15997;DHT22;8103;51.340;12.326;2023-09-30T09:13:25;22.80;76.40
15997;DHT22;8103;51.340;12.326;2023-09-30T09:16:10;23.80;71.10
15997;DHT22;8103;51.340;12.326;2023-09-30T09:18:37;24.50;67.20
15997;DHT22;8103;51.340;12.326;2023-09-30T09:21:16;25.30;62.60
15997;DHT22;8103;51.340;12.326;2023-09-30T09:23:45;25.20;59.90
15997;DHT22;8103;51.340;12.326;2023-09-30T09:29:00;24.20;61.50
15997;DHT22;8103;51.340;12.326;2023-09-30T09:31:32;23.80;62.20
15997;DHT22;8103;51.340;12.326;2023-09-30T09:34:02;23.80;62.80
15997;DHT22;8103;51.340;12.326;2023-09-30T09:36:59;23.50;62.60
15997;DHT22;8103;51.340;12.326;2023-09-30T09:39:31;22.90;64.30
15997;DHT22;8103;51.340;12.326;2023-09-30T09:41:58;23.10;65.10
15997;DHT22;8103;51.340;12.326;2023-09-30T09:44:25;24.20;62.30
15997;DHT22;8103;51.340;12.326;2023-09-30T09:46:52;25.70;57.80
15997;DHT22;8103;51.340;12.326;2023-09-30T09:49:20;27.20;54.20
15997;DHT22;8103;51.340;12.326;2023-09-30T09:51:48;28.70;50.90
15997;DHT22;8103;51.340;12.326;2023-09-30T09:54:15;28.80;47.20
15997;DHT22;8103;51.340;12.326;2023-09-30T09:56:45;28.90;47.60
15997;DHT22;8103;51.340;12.326;2023-09-30T09:59:13;29.30;46.30
15997;DHT22;8103;51.340;12.326;2023-09-30T10:01:41;29.30;45.70
15997;DHT22;8103;51.340;12.326;2023-09-30T10:04:11;29.40;44.90
15997;DHT22;8103;51.340;12.326;2023-09-30T10:06:39;30.00;43.90
15997;DHT22;8103;51.340;12.326;2023-09-30T10:09:09;30.90;43.00
15997;DHT22;8103;51.340;12.326;2023-09-30T10:11:38;32.50;40.60
15997;DHT22;8103;51.340;12.326;2023-09-30T10:14:06;33.10;37.90
15997;DHT22;8103;51.340;12.326;2023-09-30T10:19:13;31.10;40.10
15997;DHT22;8103;51.340;12.326;2023-09-30T10:24:56;27.60;45.10
15997;DHT22;8103;51.340;12.326;2023-09-30T10:40:49;32.30;36.90
15997;DHT22;8103;51.340;12.326;2023-09-30T10:43:37;33.40;33.60
15997;DHT22;8103;51.340;12.326;2023-09-30T10:48:54;36.70;30.20
15997;DHT22;8103;51.340;12.326;2023-09-30T10:51:22;37.10;29.60
15997;DHT22;8103;51.340;12.326;2023-09-30T10:53:53;36.50;29.40
15997;DHT22;8103;51.340;12.326;2023-09-30T10:56:25;36.70;29.10
15997;DHT22;8103;51.340;12.326;2023-09-30T10:58:58;37.00;28.70
15997;DHT22;8103;51.340;12.326;2023-09-30T11:01:32;37.90;28.80
15997;DHT22;8103;51.340;12.326;2023-09-30T11:04:02;37.70;28.60
15997;DHT22;8103;51.340;12.326;2023-09-30T11:06:35;37.00;29.30
15997;DHT22;8103;51.340;12.326;2023-09-30T11:09:06;35.00;31.00
15997;DHT22;8103;51.340;12.326;2023-09-30T11:11:38;32.70;34.00
15997;DHT22;8103;51.340;12.326;2023-09-30T11:14:31;32.00;36.50
15997;DHT22;8103;51.340;12.326;2023-09-30T11:16:59;33.60;35.20
15997;DHT22;8103;51.340;12.326;2023-09-30T11:19:45;35.20;31.70
15997;DHT22;8103;51.340;12.326;2023-09-30T11:22:13;36.60;30.10
15997;DHT22;8103;51.340;12.326;2023-09-30T11:24:41;38.00;28.80
15997;DHT22;8103;51.340;12.326;2023-09-30T11:27:08;38.50;27.90
15997;DHT22;8103;51.340;12.326;2023-09-30T11:29:35;39.30;26.00
15997;DHT22;8103;51.340;12.326;2023-09-30T11:32:02;39.80;25.80
15997;DHT22;8103;51.340;12.326;2023-09-30T11:34:36;39.60;25.50
15997;DHT22;8103;51.340;12.326;2023-09-30T11:37:04;37.30;27.10
15997;DHT22;8103;51.340;12.326;2023-09-30T11:39:32;36.90;27.90
15997;DHT22;8103;51.340;12.326;2023-09-30T11:42:00;36.80;27.50
15997;DHT22;8103;51.340;12.326;2023-09-30T11:44:27;37.00;27.60
15997;DHT22;8103;51.340;12.326;2023-09-30T11:46:58;37.40;27.40
15997;DHT22;8103;51.340;12.326;2023-09-30T11:49:38;37.50;27.20
15997;DHT22;8103;51.340;12.326;2023-09-30T11:52:09;37.40;27.80
15997;DHT22;8103;51.340;12.326;2023-09-30T11:54:41;37.60;27.70
15997;DHT22;8103;51.340;12.326;2023-09-30T11:57:11;38.70;27.10
15997;DHT22;8103;51.340;12.326;2023-09-30T11:59:38;39.40;25.90
15997;DHT22;8103;51.340;12.326;2023-09-30T12:02:14;39.60;25.80
15997;DHT22;8103;51.340;12.326;2023-09-30T12:04:42;39.30;25.50
15997;DHT22;8103;51.340;12.326;2023-09-30T12:07:10;38.70;25.70
15997;DHT22;8103;51.340;12.326;2023-09-30T12:09:37;38.60;25.90
15997;DHT22;8103;51.340;12.326;2023-09-30T12:12:08;39.00;25.70
15997;DHT22;8103;51.340;12.326;2023-09-30T12:14:41;38.80;25.80
15997;DHT22;8103;51.340;12.326;2023-09-30T12:17:08;38.50;26.20
15997;DHT22;8103;51.340;12.326;2023-09-30T12:19:40;38.20;26.50
15997;DHT22;8103;51.340;12.326;2023-09-30T12:22:08;38.80;26.30
15997;DHT22;8103;51.340;12.326;2023-09-30T12:24:38;39.30;26.00
15997;DHT22;8103;51.340;12.326;2023-09-30T12:27:07;40.10;25.40
15997;DHT22;8103;51.340;12.326;2023-09-30T12:29:34;40.20;25.20
15997;DHT22;8103;51.340;12.326;2023-09-30T12:32:00;40.20;25.10
15997;DHT22;8103;51.340;12.326;2023-09-30T12:34:28;40.10;25.00
15997;DHT22;8103;51.340;12.326;2023-09-30T12:36:54;39.10;25.70
15997;DHT22;8103;51.340;12.326;2023-09-30T12:39:25;37.50;27.00
15997;DHT22;8103;51.340;12.326;2023-09-30T12:41:53;37.40;27.60
15997;DHT22;8103;51.340;12.326;2023-09-30T12:44:21;38.40;26.70
15997;DHT22;8103;51.340;12.326;2023-09-30T12:46:49;39.90;25.50
15997;DHT22;8103;51.340;12.326;2023-09-30T12:49:17;40.00;25.00
15997;DHT22;8103;51.340;12.326;2023-09-30T12:51:45;38.80;25.80
15997;DHT22;8103;51.340;12.326;2023-09-30T12:54:12;38.30;26.30
15997;DHT22;8103;51.340;12.326;2023-09-30T12:56:43;37.90;26.30
15997;DHT22;8103;51.340;12.326;2023-09-30T12:59:10;38.60;26.10
15997;DHT22;8103;51.340;12.326;2023-09-30T13:01:37;39.80;25.20
15997;DHT22;8103;51.340;12.326;2023-09-30T13:04:04;41.00;24.10
15997;DHT22;8103;51.340;12.326;2023-09-30T13:06:35;41.50;23.70
15997;DHT22;8103;51.340;12.326;2023-09-30T13:09:03;41.20;23.80
15997;DHT22;8103;51.340;12.326;2023-09-30T13:11:31;41.00;24.10
15997;DHT22;8103;51.340;12.326;2023-09-30T13:13:59;41.10;24.20
15997;DHT22;8103;51.340;12.326;2023-09-30T13:16:26;40.80;23.80
15997;DHT22;8103;51.340;12.326;2023-09-30T13:18:53;40.50;24.10
15997;DHT22;8103;51.340;12.326;2023-09-30T13:21:20;40.00;24.30
15997;DHT22;8103;51.340;12.326;2023-09-30T13:23:47;39.00;25.20
15997;DHT22;8103;51.340;12.326;2023-09-30T13:26:14;38.20;26.00
15997;DHT22;8103;51.340;12.326;2023-09-30T13:28:40;38.20;25.90
15997;DHT22;8103;51.340;12.326;2023-09-30T13:31:07;37.70;26.00
15997;DHT22;8103;51.340;12.326;2023-09-30T13:33:34;37.80;26.00
15997;DHT22;8103;51.340;12.326;2023-09-30T13:36:01;38.30;25.60
15997;DHT22;8103;51.340;12.326;2023-09-30T13:38:29;39.00;24.90
15997;DHT22;8103;51.340;12.326;2023-09-30T13:40:55;39.60;24.60
15997;DHT22;8103;51.340;12.326;2023-09-30T13:43:22;39.60;24.70
15997;DHT22;8103;51.340;12.326;2023-09-30T13:45:49;39.80;24.10
15997;DHT22;8103;51.340;12.326;2023-09-30T13:48:17;39.70;24.70
15997;DHT22;8103;51.340;12.326;2023-09-30T13:50:43;39.40;24.40
15997;DHT22;8103;51.340;12.326;2023-09-30T13:53:12;39.10;24.70
15997;DHT22;8103;51.340;12.326;2023-09-30T13:55:39;39.20;24.60
15997;DHT22;8103;51.340;12.326;2023-09-30T13:58:06;39.10;24.70
15997;DHT22;8103;51.340;12.326;2023-09-30T14:00:33;39.00;24.90
15997;DHT22;8103;51.340;12.326;2023-09-30T14:03:00;38.80;25.00
15997;DHT22;8103;51.340;12.326;2023-09-30T14:05:27;39.10;24.80
15997;DHT22;8103;51.340;12.326;2023-09-30T14:07:55;39.60;24.50
15997;DHT22;8103;51.340;12.326;2023-09-30T14:10:22;40.30;23.90
15997;DHT22;8103;51.340;12.326;2023-09-30T14:12:51;40.50;23.40
15997;DHT22;8103;51.340;12.326;2023-09-30T14:15:20;39.10;24.00
15997;DHT22;8103;51.340;12.326;2023-09-30T14:17:49;36.50;26.00
15997;DHT22;8103;51.340;12.326;2023-09-30T14:20:17;34.00;28.10
15997;DHT22;8103;51.340;12.326;2023-09-30T14:22:43;31.90;30.60
15997;DHT22;8103;51.340;12.326;2023-09-30T14:25:10;30.00;33.20
15997;DHT22;8103;51.340;12.326;2023-09-30T14:27:37;28.60;35.00
15997;DHT22;8103;51.340;12.326;2023-09-30T14:30:04;27.40;37.70
15997;DHT22;8103;51.340;12.326;2023-09-30T14:32:34;26.30;40.00
15997;DHT22;8103;51.340;12.326;2023-09-30T14:35:01;25.70;41.30
15997;DHT22;8103;51.340;12.326;2023-09-30T14:37:28;25.10;42.50
15997;DHT22;8103;51.340;12.326;2023-09-30T14:39:55;24.60;42.90
15997;DHT22;8103;51.340;12.326;2023-09-30T14:42:22;24.20;43.90
15997;DHT22;8103;51.340;12.326;2023-09-30T14:44:49;23.90;44.10
15997;DHT22;8103;51.340;12.326;2023-09-30T14:47:16;23.60;45.40
15997;DHT22;8103;51.340;12.326;2023-09-30T14:49:43;23.50;45.50
15997;DHT22;8103;51.340;12.326;2023-09-30T14:52:10;23.50;45.70
15997;DHT22;8103;51.340;12.326;2023-09-30T14:54:36;23.50;45.70
15997;DHT22;8103;51.340;12.326;2023-09-30T14:57:04;23.30;46.00
15997;DHT22;8103;51.340;12.326;2023-09-30T14:59:33;23.20;46.60
15997;DHT22;8103;51.340;12.326;2023-09-30T15:02:00;22.90;47.30
15997;DHT22;8103;51.340;12.326;2023-09-30T15:04:27;22.70;47.90
15997;DHT22;8103;51.340;12.326;2023-09-30T15:06:54;22.60;48.00
15997;DHT22;8103;51.340;12.326;2023-09-30T15:09:21;22.40;48.70
15997;DHT22;8103;51.340;12.326;2023-09-30T15:11:49;22.20;49.10
15997;DHT22;8103;51.340;12.326;2023-09-30T15:14:15;22.00;49.90
15997;DHT22;8103;51.340;12.326;2023-09-30T15:16:42;21.90;50.90
15997;DHT22;8103;51.340;12.326;2023-09-30T15:19:09;21.90;50.80
15997;DHT22;8103;51.340;12.326;2023-09-30T15:21:36;21.90;50.80
15997;DHT22;8103;51.340;12.326;2023-09-30T15:24:04;21.90;51.20
15997;DHT22;8103;51.340;12.326;2023-09-30T15:26:31;21.80;51.30
15997;DHT22;8103;51.340;12.326;2023-09-30T15:28:57;21.70;51.30
15997;DHT22;8103;51.340;12.326;2023-09-30T15:31:28;21.50;51.70
15997;DHT22;8103;51.340;12.326;2023-09-30T15:33:58;21.30;52.20
15997;DHT22;8103;51.340;12.326;2023-09-30T15:36:25;21.20;52.70
15997;DHT22;8103;51.340;12.326;2023-09-30T15:38:52;21.20;53.00
15997;DHT22;8103;51.340;12.326;2023-09-30T15:41:23;21.20;53.00
15997;DHT22;8103;51.340;12.326;2023-09-30T15:43:50;21.10;53.60
15997;DHT22;8103;51.340;12.326;2023-09-30T15:46:17;21.10;53.90
15997;DHT22;8103;51.340;12.326;2023-09-30T15:48:45;21.00;54.10
15997;DHT22;8103;51.340;12.326;2023-09-30T15:51:12;20.90;54.20
15997;DHT22;8103;51.340;12.326;2023-09-30T15:53:39;20.80;54.60
15997;DHT22;8103;51.340;12.326;2023-09-30T15:56:06;20.80;54.60
15997;DHT22;8103;51.340;12.326;2023-09-30T15:58:33;20.70;55.00
15997;DHT22;8103;51.340;12.326;2023-09-30T16:01:00;20.60;55.40
15997;DHT22;8103;51.340;12.326;2023-09-30T16:03:27;20.60;55.40